sensor_id;sensor_type;location;lat;lon;timestamp;P1;durP1;ratioP1;P2;durP2;ratioP2
46334;SDS011;32051;48.882;9.210;2023-10-13T00:01:58;19.88;;;7.43;;
46334;SDS011;32051;48.882;9.210;2023-10-13T00:04:24;14.25;;;7.07;;
46334;SDS011;32051;48.882;9.210;2023-10-13T00:06:51;15.32;;;7.60;;
46334;SDS011;32051;48.882;9.210;2023-10-13T00:09:22;12.00;;;6.90;;
46334;SDS011;32051;48.882;9.210;2023-10-13T00:11:57;18.00;;;7.65;;
46334;SDS011;32051;48.882;9.210;2023-10-13T00:14:23;14.60;;;7.13;;
46334;SDS011;32051;48.882;9.210;2023-10-13T00:16:58;12.50;;;8.00;;
46334;SDS011;32051;48.882;9.210;2023-10-13T00:19:34;19.08;;;7.68;;
46334;SDS011;32051;48.882;9.210;2023-10-13T00:22:10;18.05;;;9.10;;
46334;SDS011;32051;48.882;9.210;2023-10-13T00:24:37;11.05;;;7.72;;
46334;SDS011;32051;48.882;9.210;2023-10-13T00:27:14;30.15;;;8.63;;
46334;SDS011;32051;48.882;9.210;2023-10-13T00:29:54;19.13;;;8.07;;
46334;SDS011;32051;48.882;9.210;2023-10-13T00:32:40;26.83;;;8.07;;
46334;SDS011;32051;48.882;9.210;2023-10-13T00:35:09;17.88;;;8.50;;
46334;SDS011;32051;48.882;9.210;2023-10-13T00:37:49;21.73;;;8.63;;
46334;SDS011;32051;48.882;9.210;2023-10-13T00:40:18;12.88;;;8.20;;
46334;SDS011;32051;48.882;9.210;2023-10-13T00:43:00;21.67;;;7.68;;
46334;SDS011;32051;48.882;9.210;2023-10-13T00:45:46;13.07;;;7.70;;
46334;SDS011;32051;48.882;9.210;2023-10-13T00:48:20;20.02;;;8.85;;
46334;SDS011;32051;48.882;9.210;2023-10-13T00:50:49;17.10;;;8.13;;
46334;SDS011;32051;48.882;9.210;2023-10-13T00:53:16;22.10;;;9.30;;
46334;SDS011;32051;48.882;9.210;2023-10-13T00:55:42;17.55;;;8.60;;
46334;SDS011;32051;48.882;9.210;2023-10-13T00:58:09;20.50;;;8.45;;
46334;SDS011;32051;48.882;9.210;2023-10-13T01:00:37;16.95;;;8.50;;
46334;SDS011;32051;48.882;9.210;2023-10-13T01:03:12;16.73;;;7.68;;
46334;SDS011;32051;48.882;9.210;2023-10-13T01:05:40;20.20;;;8.25;;
46334;SDS011;32051;48.882;9.210;2023-10-13T01:08:06;12.77;;;7.35;;
46334;SDS011;32051;48.882;9.210;2023-10-13T01:10:37;10.18;;;6.63;;
46334;SDS011;32051;48.882;9.210;2023-10-13T01:13:06;22.27;;;8.18;;
46334;SDS011;32051;48.882;9.210;2023-10-13T01:15:32;10.43;;;6.13;;
46334;SDS011;32051;48.882;9.210;2023-10-13T01:18:08;14.07;;;7.63;;
46334;SDS011;32051;48.882;9.210;2023-10-13T01:20:37;19.48;;;7.40;;
46334;SDS011;32051;48.882;9.210;2023-10-13T01:23:27;16.58;;;7.18;;
46334;SDS011;32051;48.882;9.210;2023-10-13T01:25:54;23.58;;;7.20;;
46334;SDS011;32051;48.882;9.210;2023-10-13T01:28:23;14.93;;;6.78;;
46334;SDS011;32051;48.882;9.210;2023-10-13T01:30:49;11.40;;;4.75;;
46334;SDS011;32051;48.882;9.210;2023-10-13T01:33:19;24.13;;;5.15;;
46334;SDS011;32051;48.882;9.210;2023-10-13T01:35:52;10.73;;;5.32;;
46334;SDS011;32051;48.882;9.210;2023-10-13T01:38:20;9.18;;;5.25;;
46334;SDS011;32051;48.882;9.210;2023-10-13T01:40:46;11.77;;;5.60;;
46334;SDS011;32051;48.882;9.210;2023-10-13T01:43:16;11.18;;;4.68;;
46334;SDS011;32051;48.882;9.210;2023-10-13T01:45:43;9.05;;;4.47;;
46334;SDS011;32051;48.882;9.210;2023-10-13T01:48:12;16.88;;;5.35;;
46334;SDS011;32051;48.882;9.210;2023-10-13T01:50:42;12.02;;;4.93;;
46334;SDS011;32051;48.882;9.210;2023-10-13T01:53:20;11.93;;;4.40;;
46334;SDS011;32051;48.882;9.210;2023-10-13T01:55:47;8.25;;;4.68;;
46334;SDS011;32051;48.882;9.210;2023-10-13T01:58:15;9.45;;;4.80;;
46334;SDS011;32051;48.882;9.210;2023-10-13T02:00:42;13.25;;;3.83;;
46334;SDS011;32051;48.882;9.210;2023-10-13T02:03:12;12.02;;;3.88;;
46334;SDS011;32051;48.882;9.210;2023-10-13T02:05:42;5.88;;;3.22;;
46334;SDS011;32051;48.882;9.210;2023-10-13T02:08:22;7.60;;;3.08;;
46334;SDS011;32051;48.882;9.210;2023-10-13T02:10:52;9.63;;;3.25;;
46334;SDS011;32051;48.882;9.210;2023-10-13T02:13:19;5.93;;;3.40;;
46334;SDS011;32051;48.882;9.210;2023-10-13T02:15:47;10.77;;;3.38;;
46334;SDS011;32051;48.882;9.210;2023-10-13T02:18:14;17.58;;;3.42;;
46334;SDS011;32051;48.882;9.210;2023-10-13T02:21:03;7.75;;;3.55;;
46334;SDS011;32051;48.882;9.210;2023-10-13T02:23:30;3.00;;;2.70;;
46334;SDS011;32051;48.882;9.210;2023-10-13T02:25:59;10.02;;;3.05;;
46334;SDS011;32051;48.882;9.210;2023-10-13T02:28:27;9.52;;;3.40;;
46334;SDS011;32051;48.882;9.210;2023-10-13T02:30:56;14.82;;;3.78;;
46334;SDS011;32051;48.882;9.210;2023-10-13T02:33:22;9.13;;;3.33;;
46334;SDS011;32051;48.882;9.210;2023-10-13T02:35:58;6.75;;;3.72;;
46334;SDS011;32051;48.882;9.210;2023-10-13T02:38:24;10.35;;;3.22;;
46334;SDS011;32051;48.882;9.210;2023-10-13T02:41:14;14.50;;;3.25;;
46334;SDS011;32051;48.882;9.210;2023-10-13T02:43:54;12.15;;;4.25;;
46334;SDS011;32051;48.882;9.210;2023-10-13T02:46:22;17.60;;;4.57;;
46334;SDS011;32051;48.882;9.210;2023-10-13T02:48:53;7.47;;;3.10;;
46334;SDS011;32051;48.882;9.210;2023-10-13T02:51:21;11.13;;;3.50;;
46334;SDS011;32051;48.882;9.210;2023-10-13T02:53:56;9.95;;;3.38;;
46334;SDS011;32051;48.882;9.210;2023-10-13T02:56:28;9.88;;;4.10;;
46334;SDS011;32051;48.882;9.210;2023-10-13T02:58:54;19.02;;;3.25;;
46334;SDS011;32051;48.882;9.210;2023-10-13T03:01:33;7.35;;;3.10;;
46334;SDS011;32051;48.882;9.210;2023-10-13T03:04:00;8.02;;;3.28;;
46334;SDS011;32051;48.882;9.210;2023-10-13T03:06:28;10.65;;;3.28;;
46334;SDS011;32051;48.882;9.210;2023-10-13T03:08:59;2.85;;;2.65;;
46334;SDS011;32051;48.882;9.210;2023-10-13T03:11:38;6.72;;;2.97;;
46334;SDS011;32051;48.882;9.210;2023-10-13T03:14:13;7.53;;;3.67;;
46334;SDS011;32051;48.882;9.210;2023-10-13T03:16:48;6.28;;;3.67;;
46334;SDS011;32051;48.882;9.210;2023-10-13T03:19:14;10.73;;;3.67;;
46334;SDS011;32051;48.882;9.210;2023-10-13T03:21:43;9.73;;;3.20;;
46334;SDS011;32051;48.882;9.210;2023-10-13T03:24:11;5.95;;;3.08;;
46334;SDS011;32051;48.882;9.210;2023-10-13T03:26:38;7.50;;;2.97;;
46334;SDS011;32051;48.882;9.210;2023-10-13T03:29:09;7.00;;;3.40;;
46334;SDS011;32051;48.882;9.210;2023-10-13T03:31:39;10.18;;;3.65;;
46334;SDS011;32051;48.882;9.210;2023-10-13T03:34:05;12.10;;;3.58;;
46334;SDS011;32051;48.882;9.210;2023-10-13T03:36:37;10.85;;;3.63;;
46334;SDS011;32051;48.882;9.210;2023-10-13T03:39:22;9.05;;;5.10;;
46334;SDS011;32051;48.882;9.210;2023-10-13T03:41:57;12.57;;;3.92;;
46334;SDS011;32051;48.882;9.210;2023-10-13T03:44:24;13.48;;;4.30;;
46334;SDS011;32051;48.882;9.210;2023-10-13T03:46:55;5.28;;;4.03;;
46334;SDS011;32051;48.882;9.210;2023-10-13T03:49:21;8.90;;;4.20;;
46334;SDS011;32051;48.882;9.210;2023-10-13T03:51:50;15.57;;;4.93;;
46334;SDS011;32051;48.882;9.210;2023-10-13T03:54:19;9.38;;;4.88;;
46334;SDS011;32051;48.882;9.210;2023-10-13T03:56:45;14.07;;;5.20;;
46334;SDS011;32051;48.882;9.210;2023-10-13T03:59:17;21.40;;;4.43;;
46334;SDS011;32051;48.882;9.210;2023-10-13T04:01:44;9.73;;;5.53;;
46334;SDS011;32051;48.882;9.210;2023-10-13T04:04:16;8.32;;;4.15;;
46334;SDS011;32051;48.882;9.210;2023-10-13T04:07:00;12.02;;;5.00;;
46334;SDS011;32051;48.882;9.210;2023-10-13T04:09:36;12.95;;;5.20;;
46334;SDS011;32051;48.882;9.210;2023-10-13T04:12:03;11.35;;;5.35;;
46334;SDS011;32051;48.882;9.210;2023-10-13T04:14:33;10.13;;;4.90;;
46334;SDS011;32051;48.882;9.210;2023-10-13T04:17:18;8.65;;;4.50;;
46334;SDS011;32051;48.882;9.210;2023-10-13T04:19:50;8.25;;;3.80;;
46334;SDS011;32051;48.882;9.210;2023-10-13T04:22:38;11.98;;;4.32;;
46334;SDS011;32051;48.882;9.210;2023-10-13T04:25:20;10.93;;;3.85;;
46334;SDS011;32051;48.882;9.210;2023-10-13T04:28:05;7.72;;;3.70;;
46334;SDS011;32051;48.882;9.210;2023-10-13T04:30:38;5.90;;;4.90;;
46334;SDS011;32051;48.882;9.210;2023-10-13T04:33:24;4.13;;;3.35;;
46334;SDS011;32051;48.882;9.210;2023-10-13T04:36:12;13.57;;;4.63;;
46334;SDS011;32051;48.882;9.210;2023-10-13T04:38:44;8.85;;;3.70;;
46334;SDS011;32051;48.882;9.210;2023-10-13T04:41:33;4.47;;;3.33;;
46334;SDS011;32051;48.882;9.210;2023-10-13T04:44:22;10.48;;;3.95;;
46334;SDS011;32051;48.882;9.210;2023-10-13T04:49:21;7.93;;;4.43;;
46334;SDS011;32051;48.882;9.210;2023-10-13T04:51:59;13.55;;;4.05;;
46334;SDS011;32051;48.882;9.210;2023-10-13T04:54:35;11.45;;;4.30;;
46334;SDS011;32051;48.882;9.210;2023-10-13T04:59:59;5.10;;;4.22;;
46334;SDS011;32051;48.882;9.210;2023-10-13T05:02:31;11.60;;;4.15;;
46334;SDS011;32051;48.882;9.210;2023-10-13T05:05:05;7.97;;;4.70;;
46334;SDS011;32051;48.882;9.210;2023-10-13T05:07:31;9.82;;;4.20;;
46334;SDS011;32051;48.882;9.210;2023-10-13T05:10:16;9.57;;;4.32;;
46334;SDS011;32051;48.882;9.210;2023-10-13T05:13:01;17.17;;;4.03;;
46334;SDS011;32051;48.882;9.210;2023-10-13T05:15:47;8.73;;;4.13;;
46334;SDS011;32051;48.882;9.210;2023-10-13T05:18:32;24.58;;;4.30;;
46334;SDS011;32051;48.882;9.210;2023-10-13T05:21:20;14.40;;;3.97;;
46334;SDS011;32051;48.882;9.210;2023-10-13T05:24:08;12.05;;;5.53;;
46334;SDS011;32051;48.882;9.210;2023-10-13T05:26:53;15.38;;;4.43;;
46334;SDS011;32051;48.882;9.210;2023-10-13T05:29:41;16.23;;;4.88;;
46334;SDS011;32051;48.882;9.210;2023-10-13T05:32:25;3.95;;;3.55;;
46334;SDS011;32051;48.882;9.210;2023-10-13T05:35:11;8.90;;;4.20;;
46334;SDS011;32051;48.882;9.210;2023-10-13T05:37:56;8.27;;;4.40;;
46334;SDS011;32051;48.882;9.210;2023-10-13T05:40:53;8.00;;;5.05;;
46334;SDS011;32051;48.882;9.210;2023-10-13T05:43:38;9.93;;;4.50;;
46334;SDS011;32051;48.882;9.210;2023-10-13T05:46:23;6.38;;;4.60;;
46334;SDS011;32051;48.882;9.210;2023-10-13T05:48:50;16.58;;;5.00;;
46334;SDS011;32051;48.882;9.210;2023-10-13T05:51:25;14.93;;;4.68;;
46334;SDS011;32051;48.882;9.210;2023-10-13T05:54:02;4.18;;;3.78;;
46334;SDS011;32051;48.882;9.210;2023-10-13T05:59:26;8.60;;;4.88;;
46334;SDS011;32051;48.882;9.210;2023-10-13T06:02:10;12.95;;;4.38;;
46334;SDS011;32051;48.882;9.210;2023-10-13T06:04:56;16.50;;;5.85;;
46334;SDS011;32051;48.882;9.210;2023-10-13T06:07:40;18.30;;;5.00;;
46334;SDS011;32051;48.882;9.210;2023-10-13T06:10:25;10.40;;;4.85;;
46334;SDS011;32051;48.882;9.210;2023-10-13T06:13:10;8.95;;;4.45;;
46334;SDS011;32051;48.882;9.210;2023-10-13T06:15:55;13.02;;;4.53;;
46334;SDS011;32051;48.882;9.210;2023-10-13T06:18:40;10.55;;;4.55;;
46334;SDS011;32051;48.882;9.210;2023-10-13T06:21:25;10.43;;;4.38;;
46334;SDS011;32051;48.882;9.210;2023-10-13T06:24:10;5.57;;;4.10;;
46334;SDS011;32051;48.882;9.210;2023-10-13T06:26:54;11.20;;;4.15;;
46334;SDS011;32051;48.882;9.210;2023-10-13T06:29:39;12.23;;;4.15;;
46334;SDS011;32051;48.882;9.210;2023-10-13T06:32:06;14.13;;;4.32;;
46334;SDS011;32051;48.882;9.210;2023-10-13T06:34:38;14.02;;;4.45;;
46334;SDS011;32051;48.882;9.210;2023-10-13T06:37:11;7.25;;;3.60;;
46334;SDS011;32051;48.882;9.210;2023-10-13T06:39:57;5.47;;;4.38;;
46334;SDS011;32051;48.882;9.210;2023-10-13T06:42:33;6.43;;;3.70;;
46334;SDS011;32051;48.882;9.210;2023-10-13T06:45:00;4.80;;;3.42;;
46334;SDS011;32051;48.882;9.210;2023-10-13T06:47:36;13.20;;;4.32;;
46334;SDS011;32051;48.882;9.210;2023-10-13T06:50:11;10.13;;;3.92;;
46334;SDS011;32051;48.882;9.210;2023-10-13T06:55:07;8.30;;;3.47;;
46334;SDS011;32051;48.882;9.210;2023-10-13T06:57:35;14.25;;;4.35;;
46334;SDS011;32051;48.882;9.210;2023-10-13T07:00:01;17.63;;;3.53;;
46334;SDS011;32051;48.882;9.210;2023-10-13T07:02:33;13.05;;;4.53;;
46334;SDS011;32051;48.882;9.210;2023-10-13T07:04:59;9.98;;;3.85;;
46334;SDS011;32051;48.882;9.210;2023-10-13T07:07:32;10.93;;;5.07;;
46334;SDS011;32051;48.882;9.210;2023-10-13T07:09:58;12.25;;;4.05;;
46334;SDS011;32051;48.882;9.210;2023-10-13T07:12:24;12.30;;;3.47;;
46334;SDS011;32051;48.882;9.210;2023-10-13T07:14:58;8.20;;;3.30;;
46334;SDS011;32051;48.882;9.210;2023-10-13T07:17:45;11.90;;;3.85;;
46334;SDS011;32051;48.882;9.210;2023-10-13T07:20:12;3.90;;;3.53;;
46334;SDS011;32051;48.882;9.210;2023-10-13T07:22:53;5.78;;;3.40;;
46334;SDS011;32051;48.882;9.210;2023-10-13T07:25:28;14.77;;;3.53;;
46334;SDS011;32051;48.882;9.210;2023-10-13T07:28:00;4.03;;;2.95;;
46334;SDS011;32051;48.882;9.210;2023-10-13T07:30:26;10.52;;;4.22;;
46334;SDS011;32051;48.882;9.210;2023-10-13T07:32:53;12.30;;;3.78;;
46334;SDS011;32051;48.882;9.210;2023-10-13T07:35:22;16.33;;;4.38;;
46334;SDS011;32051;48.882;9.210;2023-10-13T07:37:50;18.27;;;4.47;;
46334;SDS011;32051;48.882;9.210;2023-10-13T07:40:20;10.52;;;3.28;;
46334;SDS011;32051;48.882;9.210;2023-10-13T07:42:49;8.43;;;3.28;;
46334;SDS011;32051;48.882;9.210;2023-10-13T07:45:15;21.60;;;4.15;;
46334;SDS011;32051;48.882;9.210;2023-10-13T07:47:50;15.70;;;3.25;;
46334;SDS011;32051;48.882;9.210;2023-10-13T07:50:16;8.48;;;3.47;;
46334;SDS011;32051;48.882;9.210;2023-10-13T07:52:53;11.18;;;3.90;;
46334;SDS011;32051;48.882;9.210;2023-10-13T07:55:44;7.32;;;3.53;;
46334;SDS011;32051;48.882;9.210;2023-10-13T07:58:10;15.32;;;3.33;;
46334;SDS011;32051;48.882;9.210;2023-10-13T08:00:39;6.60;;;4.15;;
46334;SDS011;32051;48.882;9.210;2023-10-13T08:03:08;22.63;;;3.83;;
46334;SDS011;32051;48.882;9.210;2023-10-13T08:05:40;7.40;;;3.58;;
46334;SDS011;32051;48.882;9.210;2023-10-13T08:08:33;5.53;;;3.80;;
46334;SDS011;32051;48.882;9.210;2023-10-13T08:11:05;15.57;;;4.85;;
46334;SDS011;32051;48.882;9.210;2023-10-13T08:13:51;21.50;;;3.92;;
46334;SDS011;32051;48.882;9.210;2023-10-13T08:16:24;19.42;;;3.28;;
46334;SDS011;32051;48.882;9.210;2023-10-13T08:19:10;14.38;;;4.20;;
46334;SDS011;32051;48.882;9.210;2023-10-13T08:21:37;10.77;;;4.93;;
46334;SDS011;32051;48.882;9.210;2023-10-13T08:24:04;11.05;;;3.60;;
46334;SDS011;32051;48.882;9.210;2023-10-13T08:26:33;15.63;;;3.85;;
46334;SDS011;32051;48.882;9.210;2023-10-13T08:29:05;12.15;;;3.50;;
46334;SDS011;32051;48.882;9.210;2023-10-13T08:31:49;14.68;;;3.65;;
46334;SDS011;32051;48.882;9.210;2023-10-13T08:34:35;11.85;;;4.72;;
46334;SDS011;32051;48.882;9.210;2023-10-13T08:37:27;7.97;;;3.88;;
46334;SDS011;32051;48.882;9.210;2023-10-13T08:39:55;19.50;;;3.47;;
46334;SDS011;32051;48.882;9.210;2023-10-13T08:42:30;10.40;;;3.85;;
46334;SDS011;32051;48.882;9.210;2023-10-13T08:45:09;14.50;;;3.53;;
46334;SDS011;32051;48.882;9.210;2023-10-13T08:47:51;20.65;;;4.28;;
46334;SDS011;32051;48.882;9.210;2023-10-13T08:50:37;12.07;;;3.35;;
46334;SDS011;32051;48.882;9.210;2023-10-13T08:53:17;6.75;;;3.50;;
46334;SDS011;32051;48.882;9.210;2023-10-13T08:55:58;11.57;;;3.03;;
46334;SDS011;32051;48.882;9.210;2023-10-13T08:58:36;7.93;;;3.05;;
46334;SDS011;32051;48.882;9.210;2023-10-13T09:01:21;14.38;;;3.10;;
46334;SDS011;32051;48.882;9.210;2023-10-13T09:06:44;10.43;;;3.28;;
46334;SDS011;32051;48.882;9.210;2023-10-13T09:09:30;13.35;;;3.35;;
46334;SDS011;32051;48.882;9.210;2023-10-13T09:12:00;4.45;;;3.20;;
46334;SDS011;32051;48.882;9.210;2023-10-13T09:14:39;9.77;;;2.60;;
46334;SDS011;32051;48.882;9.210;2023-10-13T09:17:22;11.38;;;3.15;;
46334;SDS011;32051;48.882;9.210;2023-10-13T09:22:45;16.13;;;2.92;;
46334;SDS011;32051;48.882;9.210;2023-10-13T09:25:27;6.40;;;3.72;;
46334;SDS011;32051;48.882;9.210;2023-10-13T09:28:03;7.72;;;2.50;;
46334;SDS011;32051;48.882;9.210;2023-10-13T09:30:48;6.22;;;2.88;;
46334;SDS011;32051;48.882;9.210;2023-10-13T09:33:19;15.10;;;2.95;;
46334;SDS011;32051;48.882;9.210;2023-10-13T09:35:53;8.20;;;2.72;;
46334;SDS011;32051;48.882;9.210;2023-10-13T09:38:19;9.98;;;3.58;;
46334;SDS011;32051;48.882;9.210;2023-10-13T09:40:45;7.40;;;2.65;;
46334;SDS011;32051;48.882;9.210;2023-10-13T09:43:18;5.78;;;3.05;;
46334;SDS011;32051;48.882;9.210;2023-10-13T09:45:48;12.38;;;3.00;;
46334;SDS011;32051;48.882;9.210;2023-10-13T09:48:31;10.32;;;2.33;;
46334;SDS011;32051;48.882;9.210;2023-10-13T09:50:59;5.50;;;2.13;;
46334;SDS011;32051;48.882;9.210;2023-10-13T09:53:25;6.93;;;2.50;;
46334;SDS011;32051;48.882;9.210;2023-10-13T09:55:54;13.18;;;4.10;;
46334;SDS011;32051;48.882;9.210;2023-10-13T09:58:26;19.60;;;3.08;;
46334;SDS011;32051;48.882;9.210;2023-10-13T10:01:02;13.30;;;2.63;;
46334;SDS011;32051;48.882;9.210;2023-10-13T10:03:43;13.27;;;2.53;;
46334;SDS011;32051;48.882;9.210;2023-10-13T10:06:21;19.95;;;5.47;;
46334;SDS011;32051;48.882;9.210;2023-10-13T10:09:03;14.30;;;3.22;;
46334;SDS011;32051;48.882;9.210;2023-10-13T10:14:13;4.47;;;2.97;;
46334;SDS011;32051;48.882;9.210;2023-10-13T10:17:18;7.80;;;2.33;;
46334;SDS011;32051;48.882;9.210;2023-10-13T10:19:46;10.48;;;2.38;;
46334;SDS011;32051;48.882;9.210;2023-10-13T10:22:30;5.20;;;1.83;;
46334;SDS011;32051;48.882;9.210;2023-10-13T10:25:01;14.98;;;2.15;;
46334;SDS011;32051;48.882;9.210;2023-10-13T10:27:56;7.50;;;2.67;;
46334;SDS011;32051;48.882;9.210;2023-10-13T10:32:56;9.50;;;1.90;;
46334;SDS011;32051;48.882;9.210;2023-10-13T10:35:27;14.30;;;2.10;;
46334;SDS011;32051;48.882;9.210;2023-10-13T10:38:10;7.72;;;2.13;;
46334;SDS011;32051;48.882;9.210;2023-10-13T10:40:52;4.32;;;1.85;;
46334;SDS011;32051;48.882;9.210;2023-10-13T10:43:29;6.70;;;2.45;;
46334;SDS011;32051;48.882;9.210;2023-10-13T10:49:05;4.63;;;2.65;;
46334;SDS011;32051;48.882;9.210;2023-10-13T10:51:33;6.78;;;2.40;;
46334;SDS011;32051;48.882;9.210;2023-10-13T10:54:17;10.32;;;2.10;;
46334;SDS011;32051;48.882;9.210;2023-10-13T10:56:46;10.45;;;1.98;;
46334;SDS011;32051;48.882;9.210;2023-10-13T10:59:18;7.00;;;2.28;;
46334;SDS011;32051;48.882;9.210;2023-10-13T11:01:45;9.27;;;2.58;;
46334;SDS011;32051;48.882;9.210;2023-10-13T11:04:17;13.05;;;2.95;;
46334;SDS011;32051;48.882;9.210;2023-10-13T11:06:47;11.85;;;3.13;;
46334;SDS011;32051;48.882;9.210;2023-10-13T11:09:24;5.55;;;2.45;;
46334;SDS011;32051;48.882;9.210;2023-10-13T11:11:57;3.05;;;2.10;;
46334;SDS011;32051;48.882;9.210;2023-10-13T11:14:49;12.52;;;2.38;;
46334;SDS011;32051;48.882;9.210;2023-10-13T11:17:28;17.00;;;2.65;;
46334;SDS011;32051;48.882;9.210;2023-10-13T11:20:14;14.85;;;2.80;;
46334;SDS011;32051;48.882;9.210;2023-10-13T11:22:49;8.70;;;2.63;;
46334;SDS011;32051;48.882;9.210;2023-10-13T11:25:33;4.00;;;2.05;;
46334;SDS011;32051;48.882;9.210;2023-10-13T11:30:52;19.85;;;2.65;;
46334;SDS011;32051;48.882;9.210;2023-10-13T11:33:21;23.92;;;3.28;;
46334;SDS011;32051;48.882;9.210;2023-10-13T11:35:52;5.53;;;2.13;;
46334;SDS011;32051;48.882;9.210;2023-10-13T11:38:31;6.13;;;2.00;;
46334;SDS011;32051;48.882;9.210;2023-10-13T11:41:15;8.63;;;2.35;;
46334;SDS011;32051;48.882;9.210;2023-10-13T11:43:48;12.40;;;2.72;;
46334;SDS011;32051;48.882;9.210;2023-10-13T11:46:15;13.52;;;2.25;;
46334;SDS011;32051;48.882;9.210;2023-10-13T11:48:44;10.38;;;2.30;;
46334;SDS011;32051;48.882;9.210;2023-10-13T11:51:12;7.25;;;2.63;;
46334;SDS011;32051;48.882;9.210;2023-10-13T11:53:57;11.38;;;2.15;;
46334;SDS011;32051;48.882;9.210;2023-10-13T11:56:23;9.00;;;2.78;;
46334;SDS011;32051;48.882;9.210;2023-10-13T11:58:49;7.53;;;2.08;;
46334;SDS011;32051;48.882;9.210;2023-10-13T12:01:16;10.75;;;1.90;;
46334;SDS011;32051;48.882;9.210;2023-10-13T12:03:43;8.95;;;1.75;;
46334;SDS011;32051;48.882;9.210;2023-10-13T12:06:30;6.88;;;3.05;;
46334;SDS011;32051;48.882;9.210;2023-10-13T12:09:03;26.55;;;3.60;;
46334;SDS011;32051;48.882;9.210;2023-10-13T12:11:43;19.38;;;2.63;;
46334;SDS011;32051;48.882;9.210;2023-10-13T12:14:13;6.03;;;2.15;;
46334;SDS011;32051;48.882;9.210;2023-10-13T12:16:46;5.10;;;2.05;;
46334;SDS011;32051;48.882;9.210;2023-10-13T12:19:22;4.40;;;2.08;;
46334;SDS011;32051;48.882;9.210;2023-10-13T12:21:55;5.28;;;2.08;;
46334;SDS011;32051;48.882;9.210;2023-10-13T12:24:26;8.60;;;1.77;;
46334;SDS011;32051;48.882;9.210;2023-10-13T12:27:15;5.68;;;1.95;;
46334;SDS011;32051;48.882;9.210;2023-10-13T12:29:45;8.52;;;2.05;;
46334;SDS011;32051;48.882;9.210;2023-10-13T12:32:14;10.20;;;1.70;;
46334;SDS011;32051;48.882;9.210;2023-10-13T12:34:46;5.78;;;2.35;;
46334;SDS011;32051;48.882;9.210;2023-10-13T12:37:27;5.45;;;1.63;;
46334;SDS011;32051;48.882;9.210;2023-10-13T12:40:09;5.57;;;2.05;;
46334;SDS011;32051;48.882;9.210;2023-10-13T12:43:12;8.90;;;2.05;;
46334;SDS011;32051;48.882;9.210;2023-10-13T12:45:56;8.80;;;2.20;;
46334;SDS011;32051;48.882;9.210;2023-10-13T12:48:41;10.57;;;1.70;;
46334;SDS011;32051;48.882;9.210;2023-10-13T12:51:39;12.55;;;2.28;;
46334;SDS011;32051;48.882;9.210;2023-10-13T12:54:05;11.80;;;1.80;;
46334;SDS011;32051;48.882;9.210;2023-10-13T12:56:44;10.25;;;2.63;;
46334;SDS011;32051;48.882;9.210;2023-10-13T12:59:11;6.13;;;1.75;;
46334;SDS011;32051;48.882;9.210;2023-10-13T13:01:41;9.48;;;2.72;;
46334;SDS011;32051;48.882;9.210;2023-10-13T13:04:10;3.85;;;1.95;;
46334;SDS011;32051;48.882;9.210;2023-10-13T13:06:48;3.72;;;1.90;;
46334;SDS011;32051;48.882;9.210;2023-10-13T13:09:15;5.22;;;2.42;;
46334;SDS011;32051;48.882;9.210;2023-10-13T13:11:51;12.27;;;2.47;;
46334;SDS011;32051;48.882;9.210;2023-10-13T13:14:22;7.82;;;2.25;;
46334;SDS011;32051;48.882;9.210;2023-10-13T13:16:59;4.93;;;2.42;;
46334;SDS011;32051;48.882;9.210;2023-10-13T13:19:32;7.03;;;1.88;;
46334;SDS011;32051;48.882;9.210;2023-10-13T13:22:02;12.63;;;2.58;;
46334;SDS011;32051;48.882;9.210;2023-10-13T13:24:29;8.27;;;2.05;;
46334;SDS011;32051;48.882;9.210;2023-10-13T13:26:57;6.82;;;1.90;;
46334;SDS011;32051;48.882;9.210;2023-10-13T13:29:30;11.32;;;2.22;;
46334;SDS011;32051;48.882;9.210;2023-10-13T13:31:56;15.50;;;1.88;;
46334;SDS011;32051;48.882;9.210;2023-10-13T13:34:22;8.07;;;2.50;;
46334;SDS011;32051;48.882;9.210;2023-10-13T13:36:47;6.90;;;2.25;;
46334;SDS011;32051;48.882;9.210;2023-10-13T13:39:20;3.38;;;1.90;;
46334;SDS011;32051;48.882;9.210;2023-10-13T13:41:55;3.03;;;1.55;;
46334;SDS011;32051;48.882;9.210;2023-10-13T13:44:25;3.45;;;1.90;;
46334;SDS011;32051;48.882;9.210;2023-10-13T13:47:00;9.07;;;3.65;;
46334;SDS011;32051;48.882;9.210;2023-10-13T13:49:37;6.78;;;1.85;;
46334;SDS011;32051;48.882;9.210;2023-10-13T13:52:11;6.90;;;1.63;;
46334;SDS011;32051;48.882;9.210;2023-10-13T13:54:43;14.45;;;1.98;;
46334;SDS011;32051;48.882;9.210;2023-10-13T13:57:09;8.63;;;1.70;;
46334;SDS011;32051;48.882;9.210;2023-10-13T13:59:35;7.93;;;1.80;;
46334;SDS011;32051;48.882;9.210;2023-10-13T14:02:04;4.82;;;1.77;;
46334;SDS011;32051;48.882;9.210;2023-10-13T14:04:45;5.65;;;1.70;;
46334;SDS011;32051;48.882;9.210;2023-10-13T14:07:20;14.75;;;2.67;;
46334;SDS011;32051;48.882;9.210;2023-10-13T14:09:48;4.95;;;1.83;;
46334;SDS011;32051;48.882;9.210;2023-10-13T14:12:18;9.60;;;2.00;;
46334;SDS011;32051;48.882;9.210;2023-10-13T14:15:03;11.10;;;2.03;;
46334;SDS011;32051;48.882;9.210;2023-10-13T14:17:29;8.68;;;2.25;;
46334;SDS011;32051;48.882;9.210;2023-10-13T14:19:55;11.50;;;2.22;;
46334;SDS011;32051;48.882;9.210;2023-10-13T14:22:22;6.35;;;1.60;;
46334;SDS011;32051;48.882;9.210;2023-10-13T14:24:50;11.13;;;2.03;;
46334;SDS011;32051;48.882;9.210;2023-10-13T14:27:23;6.70;;;1.77;;
46334;SDS011;32051;48.882;9.210;2023-10-13T14:29:51;12.65;;;2.08;;
46334;SDS011;32051;48.882;9.210;2023-10-13T14:32:21;21.42;;;1.90;;
46334;SDS011;32051;48.882;9.210;2023-10-13T14:34:50;10.70;;;2.22;;
46334;SDS011;32051;48.882;9.210;2023-10-13T14:37:20;4.38;;;2.17;;
46334;SDS011;32051;48.882;9.210;2023-10-13T14:39:54;8.18;;;2.28;;
46334;SDS011;32051;48.882;9.210;2023-10-13T14:42:26;4.30;;;2.22;;
46334;SDS011;32051;48.882;9.210;2023-10-13T14:44:53;9.15;;;2.63;;
46334;SDS011;32051;48.882;9.210;2023-10-13T14:47:22;9.65;;;1.92;;
46334;SDS011;32051;48.882;9.210;2023-10-13T14:49:58;4.85;;;1.95;;
46334;SDS011;32051;48.882;9.210;2023-10-13T14:52:25;6.82;;;1.50;;
46334;SDS011;32051;48.882;9.210;2023-10-13T14:54:51;8.52;;;2.67;;
46334;SDS011;32051;48.882;9.210;2023-10-13T14:57:22;7.90;;;2.28;;
46334;SDS011;32051;48.882;9.210;2023-10-13T14:59:54;4.88;;;2.00;;
46334;SDS011;32051;48.882;9.210;2023-10-13T15:02:21;7.97;;;1.85;;
46334;SDS011;32051;48.882;9.210;2023-10-13T15:04:47;7.40;;;2.28;;
46334;SDS011;32051;48.882;9.210;2023-10-13T15:07:13;10.25;;;1.90;;
46334;SDS011;32051;48.882;9.210;2023-10-13T15:09:44;8.90;;;2.00;;
46334;SDS011;32051;48.882;9.210;2023-10-13T15:12:10;7.07;;;1.80;;
46334;SDS011;32051;48.882;9.210;2023-10-13T15:14:39;3.40;;;1.92;;
46334;SDS011;32051;48.882;9.210;2023-10-13T15:17:09;9.20;;;1.83;;
46334;SDS011;32051;48.882;9.210;2023-10-13T15:19:35;9.60;;;2.17;;
46334;SDS011;32051;48.882;9.210;2023-10-13T15:22:04;8.15;;;2.08;;
46334;SDS011;32051;48.882;9.210;2023-10-13T15:24:34;11.15;;;2.35;;
46334;SDS011;32051;48.882;9.210;2023-10-13T15:27:10;12.60;;;2.95;;
46334;SDS011;32051;48.882;9.210;2023-10-13T15:29:36;4.60;;;1.98;;
46334;SDS011;32051;48.882;9.210;2023-10-13T15:32:03;7.72;;;1.70;;
46334;SDS011;32051;48.882;9.210;2023-10-13T15:34:30;3.03;;;2.17;;
46334;SDS011;32051;48.882;9.210;2023-10-13T15:36:57;4.05;;;2.58;;
46334;SDS011;32051;48.882;9.210;2023-10-13T15:39:24;10.93;;;2.45;;
46334;SDS011;32051;48.882;9.210;2023-10-13T15:41:54;5.22;;;2.22;;
46334;SDS011;32051;48.882;9.210;2023-10-13T15:44:24;12.52;;;2.25;;
46334;SDS011;32051;48.882;9.210;2023-10-13T15:46:56;7.30;;;2.47;;
46334;SDS011;32051;48.882;9.210;2023-10-13T15:49:23;9.18;;;1.58;;